KILN/ILN METAR and TAF weather

Enter ICAO airport designator
Station Type Date Time Source
KILN METAR 2019/08/22 15:34 UTC NOAA

KILN 221534Z AUTO 21005KT 10SM BKN015 23/20 A3002 RMK AO2 T02330200


Station Type Date Time Source
KILN Decoded METAR 2019/08/22 15:34 UTC NOAA

Station name not available
Aug 22, 2019 - 11:34 AM EDT / 2019.08.22 1534 UTC
Wind: from the SSW (210 degrees) at 6 MPH (5 KT):0
Visibility: 10 mile(s):0
Sky conditions: mostly cloudy
Temperature: 73.9 F (23.3 C)
Dew Point: 68.0 F (20.0 C)
Relative Humidity: 81%
Pressure (altimeter): 30.02 in. Hg (1016 hPa)
ob: KILN 221534Z AUTO 21005KT 10SM BKN015 23/20 A3002 RMK AO2 T02330200
cycle: 15

Station Type Date Time Source
KILN TAF 2019/08/22 12:45 UTC NOAA

TAF KILN 221142Z 2212/2312 23006KT P6SM -RA BKN009 OVC015
FM221300 25007KT P6SM VCSH OVC050
FM222000 28009KT 5SM -SHRA VCTS BKN040CB
FM222300 35007KT P6SM VCSH BKN060
FM230600 03005KT P6SM OVC025

Example: see airport list